createdAt,value
2019-05-25T00:02:16.315Z,45.30
2019-05-25T00:04:46.783Z,45.40
2019-05-25T00:07:17.129Z,45.50
2019-05-25T00:09:48.468Z,45.80
2019-05-25T00:12:20.492Z,45.60
2019-05-25T00:14:50.547Z,45.80
2019-05-25T00:17:20.782Z,45.70
2019-05-25T00:19:50.966Z,45.80
2019-05-25T00:22:21.108Z,46.00
2019-05-25T00:24:51.227Z,46.00
2019-05-25T00:27:21.557Z,45.90
2019-05-25T00:29:51.770Z,46.20
2019-05-25T00:32:22.286Z,46.20
2019-05-25T00:34:52.711Z,46.10
2019-05-25T00:37:23.159Z,46.20
2019-05-25T00:39:53.859Z,46.40
2019-05-25T00:42:23.958Z,46.40
2019-05-25T00:44:54.290Z,46.40
2019-05-25T00:47:24.752Z,46.90
2019-05-25T00:49:54.976Z,46.70
2019-05-25T00:52:25.137Z,46.90
2019-05-25T00:54:55.567Z,46.80
2019-05-25T00:57:25.937Z,47.00
2019-05-25T00:59:56.059Z,47.00
2019-05-25T01:02:27.123Z,47.10
2019-05-25T01:04:57.507Z,46.90
2019-05-25T01:07:27.752Z,46.90
2019-05-25T01:09:57.816Z,47.20
2019-05-25T01:12:29.167Z,47.30
2019-05-25T01:14:59.495Z,47.20
2019-05-25T01:17:29.843Z,47.30
2019-05-25T01:20:00.017Z,47.50
2019-05-25T01:22:30.156Z,47.50
2019-05-25T01:25:00.243Z,47.40
2019-05-25T01:27:30.915Z,47.50
2019-05-25T01:30:01.146Z,47.60
2019-05-25T01:32:31.291Z,47.50
2019-05-25T01:35:01.424Z,47.50
2019-05-25T01:37:31.682Z,47.80
2019-05-25T01:40:01.742Z,47.90
2019-05-25T01:42:31.906Z,47.70
2019-05-25T01:45:02.279Z,47.80
2019-05-25T01:47:33.114Z,48.00
2019-05-25T01:50:03.544Z,48.00
2019-05-25T01:52:33.889Z,48.20
2019-05-25T01:55:03.983Z,48.30
2019-05-25T01:57:35.370Z,48.30
2019-05-25T02:00:06.406Z,48.30
2019-05-25T02:02:36.825Z,48.70
2019-05-25T02:05:07.502Z,48.40
2019-05-25T02:07:37.797Z,47.90
2019-05-25T02:10:07.864Z,48.80
2019-05-25T02:12:37.925Z,48.60
2019-05-25T02:15:10.300Z,48.90
2019-05-25T02:17:41.096Z,48.90
2019-05-25T02:20:11.511Z,48.70
2019-05-25T02:22:41.886Z,49.60
2019-05-25T02:25:18.154Z,49.00
2019-05-25T02:27:44.066Z,48.90
2019-05-25T02:30:15.161Z,49.00
2019-05-25T02:32:45.392Z,49.10
2019-05-25T02:35:27.310Z,49.20
2019-05-25T02:37:58.118Z,49.10
2019-05-25T02:40:28.949Z,49.30
2019-05-25T02:42:59.567Z,49.40
2019-05-25T02:45:29.615Z,49.90
2019-05-25T02:48:00.801Z,50.00
2019-05-25T02:50:30.913Z,49.50
2019-05-25T02:53:01.079Z,49.70
2019-05-25T02:55:34.796Z,49.70
2019-05-25T02:58:03.219Z,50.30
2019-05-25T03:00:34.239Z,49.80
2019-05-25T03:03:05.708Z,49.90
2019-05-25T03:05:35.806Z,50.00
2019-05-25T03:08:06.225Z,50.00
2019-05-25T03:10:37.836Z,50.10
2019-05-25T03:13:08.253Z,50.10
2019-05-25T03:15:38.403Z,50.10
2019-05-25T03:18:09.934Z,50.20
2019-05-25T03:20:40.049Z,50.20
2019-05-25T03:23:10.695Z,50.20
2019-05-25T03:25:49.662Z,50.40
2019-05-25T03:28:13.123Z,50.40
2019-05-25T03:30:43.172Z,50.40
2019-05-25T03:33:14.529Z,50.50
2019-05-25T03:35:44.928Z,50.70
2019-05-25T03:38:15.760Z,50.70
2019-05-25T03:40:46.289Z,50.60
2019-05-25T03:43:17.362Z,50.80
2019-05-25T03:45:47.515Z,50.70
2019-05-25T03:48:17.632Z,51.00
2019-05-25T03:50:47.741Z,50.90
2019-05-25T03:53:18.180Z,51.30
2019-05-25T03:56:02.815Z,51.10
2019-05-25T03:58:23.416Z,51.20
2019-05-25T04:00:54.608Z,51.20
2019-05-25T04:03:24.723Z,51.30
2019-05-25T04:05:54.915Z,51.40
2019-05-25T04:08:25.461Z,51.50
2019-05-25T04:10:55.786Z,51.60
2019-05-25T04:13:26.866Z,51.50
2019-05-25T04:15:56.983Z,52.40
2019-05-25T04:18:29.555Z,51.60
2019-05-25T04:20:59.689Z,52.00
2019-05-25T04:23:29.921Z,51.80
2019-05-25T04:25:59.979Z,51.90
2019-05-25T04:28:30.352Z,51.80
2019-05-25T04:31:00.548Z,51.90
2019-05-25T04:33:30.978Z,52.00
2019-05-25T04:36:01.134Z,52.90
2019-05-25T04:38:31.254Z,53.30
2019-05-25T04:41:01.472Z,53.00
2019-05-25T04:43:31.967Z,52.70
2019-05-25T04:46:02.045Z,52.60
2019-05-25T04:48:32.479Z,52.70
2019-05-25T04:51:02.536Z,52.70
2019-05-25T04:53:32.963Z,52.70
2019-05-25T04:56:03.091Z,52.70
2019-05-25T04:58:33.261Z,52.70
2019-05-25T05:01:03.661Z,52.70
2019-05-25T05:03:34.146Z,52.70
2019-05-25T05:06:04.295Z,52.90
2019-05-25T05:08:35.712Z,53.00
2019-05-25T05:11:07.317Z,53.00
2019-05-25T05:13:37.869Z,53.30
2019-05-25T05:16:08.226Z,53.40
2019-05-25T05:18:38.603Z,53.20
2019-05-25T05:21:08.685Z,53.70
2019-05-25T05:23:39.216Z,54.90
2019-05-25T05:26:09.352Z,54.80
2019-05-25T05:28:39.468Z,55.20
2019-05-25T05:31:22.808Z,54.70
2019-05-25T05:33:41.509Z,54.40
2019-05-25T05:36:13.118Z,54.30
2019-05-25T05:38:43.852Z,54.10
2019-05-25T05:41:16.654Z,54.30
2019-05-25T05:43:48.964Z,53.30
2019-05-25T05:46:21.319Z,53.30
2019-05-25T05:48:52.359Z,53.60
2019-05-25T05:51:22.548Z,53.50
2019-05-25T05:53:56.861Z,53.60
2019-05-25T05:56:26.913Z,53.30
2019-05-25T05:58:57.352Z,53.60
2019-05-25T06:01:27.497Z,53.60
2019-05-25T06:03:58.085Z,53.50
2019-05-25T06:06:28.231Z,53.50
2019-05-25T06:08:58.363Z,53.60
2019-05-25T06:11:28.747Z,53.80
2019-05-25T06:13:59.249Z,53.90
2019-05-25T06:16:29.372Z,53.90
2019-05-25T06:18:59.618Z,54.00
2019-05-25T06:21:29.754Z,54.50
2019-05-25T06:23:59.835Z,54.30
2019-05-25T06:26:29.984Z,54.30
2019-05-25T06:29:00.758Z,54.40
2019-05-25T06:31:30.855Z,54.70
2019-05-25T06:34:01.287Z,54.40
2019-05-25T06:36:31.373Z,54.60
2019-05-25T06:39:01.557Z,54.50
2019-05-25T06:41:32.003Z,54.40
2019-05-25T06:44:02.671Z,55.20
2019-05-25T06:46:32.838Z,54.40
2019-05-25T06:49:02.958Z,54.40
2019-05-25T06:51:33.029Z,54.20
2019-05-25T06:54:03.231Z,53.90
2019-05-25T06:56:33.404Z,54.10
2019-05-25T06:59:03.736Z,54.00
2019-05-25T07:01:34.116Z,53.80
2019-05-25T07:04:04.263Z,54.10
2019-05-25T07:06:34.430Z,54.20
2019-05-25T07:09:07.484Z,54.10
2019-05-25T07:11:37.666Z,54.50
2019-05-25T07:14:08.361Z,54.70
2019-05-25T07:16:38.506Z,54.90
2019-05-25T07:19:09.026Z,54.80
2019-05-25T07:21:39.188Z,55.20
2019-05-25T07:24:09.718Z,54.90
2019-05-25T07:26:39.857Z,55.10
2019-05-25T07:29:10.181Z,55.00
2019-05-25T07:31:40.571Z,55.00
2019-05-25T07:34:10.766Z,54.70
2019-05-25T07:36:41.181Z,54.60
2019-05-25T07:39:11.362Z,54.80
2019-05-25T07:41:41.487Z,54.80
2019-05-25T07:44:11.579Z,54.60
2019-05-25T07:46:41.802Z,54.60
2019-05-25T07:49:12.078Z,54.50
2019-05-25T07:51:42.163Z,54.70
2019-05-25T07:54:12.438Z,54.40
2019-05-25T07:56:42.556Z,54.50
2019-05-25T07:59:12.690Z,54.40
2019-05-25T08:01:42.764Z,54.40
2019-05-25T08:04:12.965Z,54.10
2019-05-25T08:06:43.429Z,54.20
2019-05-25T08:09:13.699Z,54.40
2019-05-25T08:11:44.256Z,54.40
2019-05-25T08:14:14.800Z,54.10
2019-05-25T08:16:45.023Z,54.00
2019-05-25T08:19:15.444Z,54.30
2019-05-25T08:21:45.657Z,53.90
2019-05-25T08:24:17.088Z,53.40
2019-05-25T08:26:47.292Z,52.70
2019-05-25T08:29:17.494Z,52.70
2019-05-25T08:31:47.658Z,52.10
2019-05-25T08:34:17.955Z,52.10
2019-05-25T08:36:48.141Z,51.90
2019-05-25T08:39:19.230Z,51.40
2019-05-25T08:41:49.405Z,51.50
2019-05-25T08:44:19.633Z,51.60
2019-05-25T08:46:50.116Z,51.80
2019-05-25T08:49:20.413Z,52.10
2019-05-25T08:51:50.560Z,52.50
2019-05-25T08:54:20.824Z,52.60
2019-05-25T08:56:50.911Z,52.50
2019-05-25T08:59:22.244Z,52.80
2019-05-25T09:01:53.400Z,53.10
2019-05-25T09:04:25.705Z,53.20
2019-05-25T09:06:55.969Z,53.40
2019-05-25T09:09:26.243Z,53.40
2019-05-25T09:11:56.683Z,53.50
2019-05-25T09:14:27.709Z,53.80
2019-05-25T09:16:58.207Z,53.90
2019-05-25T09:19:28.780Z,54.10
2019-05-25T09:22:02.569Z,54.00
2019-05-25T09:24:30.837Z,54.00
2019-05-25T09:27:01.138Z,54.30
2019-05-25T09:29:31.372Z,54.10
2019-05-25T09:32:01.533Z,54.40
2019-05-25T09:34:32.044Z,54.40
2019-05-25T09:37:02.275Z,54.20
2019-05-25T09:39:32.536Z,55.10
2019-05-25T09:42:02.748Z,54.30
2019-05-25T09:44:33.310Z,54.20
2019-05-25T09:47:03.558Z,54.10
2019-05-25T09:49:34.022Z,54.30
2019-05-25T09:52:04.205Z,54.40
2019-05-25T09:54:34.448Z,54.40
2019-05-25T09:57:05.136Z,54.20
2019-05-25T09:59:35.311Z,54.40
2019-05-25T10:02:05.590Z,54.30
2019-05-25T10:04:35.872Z,54.30
2019-05-25T10:07:06.116Z,54.20
2019-05-25T10:09:39.879Z,54.20
2019-05-25T10:12:09.380Z,54.30
2019-05-25T10:14:39.554Z,54.10
2019-05-25T10:17:09.892Z,54.10
2019-05-25T10:19:40.247Z,53.90
2019-05-25T10:22:10.493Z,53.60
2019-05-25T10:24:40.731Z,53.50
2019-05-25T10:27:10.947Z,53.20
2019-05-25T10:29:41.547Z,53.10
2019-05-25T10:32:11.711Z,53.00
2019-05-25T10:34:42.228Z,52.70
2019-05-25T10:37:12.719Z,52.60
2019-05-25T10:39:42.995Z,52.80
2019-05-25T10:42:13.408Z,52.80
2019-05-25T10:44:43.590Z,52.90
2019-05-25T10:47:13.700Z,52.90
2019-05-25T10:49:43.914Z,52.90
2019-05-25T10:52:14.408Z,52.90
2019-05-25T10:54:44.612Z,52.90
2019-05-25T10:57:14.865Z,52.80
2019-05-25T10:59:52.889Z,52.90
2019-05-25T11:02:17.090Z,52.90
2019-05-25T11:04:47.280Z,52.70
2019-05-25T11:07:17.475Z,52.30
2019-05-25T11:09:47.913Z,52.70
2019-05-25T11:12:18.053Z,52.50
2019-05-25T11:14:48.173Z,52.60
2019-05-25T11:17:18.264Z,51.90
2019-05-25T11:19:48.491Z,52.30
2019-05-25T11:22:18.618Z,52.00
2019-05-25T11:24:48.851Z,53.00
2019-05-25T11:27:19.031Z,52.20
2019-05-25T11:29:49.262Z,52.50
2019-05-25T11:32:19.419Z,52.50
2019-05-25T11:34:49.502Z,52.30
2019-05-25T11:37:20.286Z,52.20
2019-05-25T11:39:50.797Z,52.00
2019-05-25T11:42:21.053Z,51.70
2019-05-25T11:44:51.291Z,51.90
2019-05-25T11:47:21.743Z,51.50
2019-05-25T11:49:53.039Z,51.80
2019-05-25T11:52:23.207Z,52.00
2019-05-25T11:54:53.651Z,52.30
2019-05-25T11:57:23.767Z,52.60
2019-05-25T11:59:54.326Z,52.10
2019-05-25T12:02:24.578Z,51.80
2019-05-25T12:04:54.793Z,51.70
2019-05-25T12:07:25.481Z,51.20
2019-05-25T12:09:55.867Z,51.20
2019-05-25T12:12:26.050Z,51.20
2019-05-25T12:14:56.310Z,51.10
2019-05-25T12:17:26.416Z,50.90
2019-05-25T12:19:56.937Z,51.20
2019-05-25T12:22:28.159Z,51.40
2019-05-25T12:24:58.325Z,51.00
2019-05-25T12:27:28.509Z,50.90
2019-05-25T12:29:59.789Z,50.90
2019-05-25T12:32:29.984Z,50.80
2019-05-25T12:35:00.431Z,50.70
2019-05-25T12:37:30.594Z,50.70
2019-05-25T12:40:01.113Z,50.50
2019-05-25T12:42:31.299Z,50.50
2019-05-25T12:45:01.494Z,50.40
2019-05-25T12:47:31.699Z,50.20
2019-05-25T12:50:01.967Z,49.80
2019-05-25T12:52:32.186Z,50.00
2019-05-25T12:55:02.468Z,50.20
2019-05-25T12:57:32.708Z,50.10
2019-05-25T13:00:15.048Z,50.00
2019-05-25T13:02:35.614Z,49.70
2019-05-25T13:05:06.310Z,49.30
2019-05-25T13:07:36.805Z,49.50
2019-05-25T13:10:07.405Z,49.20
2019-05-25T13:12:37.760Z,49.40
2019-05-25T13:15:08.657Z,50.00
2019-05-25T13:17:39.093Z,48.30
2019-05-25T13:20:09.992Z,48.70
2019-05-25T13:22:40.226Z,49.00
2019-05-25T13:25:10.736Z,48.80
2019-05-25T13:27:41.214Z,48.80
2019-05-25T13:30:11.919Z,48.40
2019-05-25T13:32:42.098Z,48.50
2019-05-25T13:35:12.289Z,48.50
2019-05-25T13:37:42.750Z,48.30
2019-05-25T13:40:13.324Z,47.60
2019-05-25T13:42:43.456Z,47.50
2019-05-25T13:45:14.005Z,47.60
2019-05-25T13:47:44.148Z,47.40
2019-05-25T13:50:14.882Z,47.80
2019-05-25T13:52:45.116Z,48.20
2019-05-25T13:55:15.467Z,47.80
2019-05-25T13:57:45.806Z,47.70
2019-05-25T14:00:16.575Z,47.60
2019-05-25T14:02:46.961Z,47.70
2019-05-25T14:05:17.539Z,47.70
2019-05-25T14:07:48.319Z,48.00
2019-05-25T14:10:18.848Z,48.00
2019-05-25T14:12:49.971Z,47.50
2019-05-25T14:15:20.180Z,47.40
2019-05-25T14:17:50.409Z,47.60
2019-05-25T14:20:21.813Z,47.50
2019-05-25T14:22:54.908Z,47.30
2019-05-25T14:25:25.114Z,47.40
2019-05-25T14:27:55.672Z,47.30
2019-05-25T14:30:25.982Z,47.30
2019-05-25T14:32:56.330Z,47.50
2019-05-25T14:35:26.450Z,47.50
2019-05-25T14:37:57.201Z,47.70
2019-05-25T14:40:27.466Z,47.50
2019-05-25T14:42:57.508Z,47.40
2019-05-25T14:45:27.626Z,47.30
2019-05-25T14:47:58.219Z,47.40
2019-05-25T14:50:28.466Z,47.40
2019-05-25T14:52:58.597Z,47.40
2019-05-25T14:55:29.131Z,47.50
2019-05-25T14:57:59.466Z,47.40
2019-05-25T15:00:30.274Z,47.40
2019-05-25T15:03:00.423Z,47.50
2019-05-25T15:05:30.610Z,47.60
2019-05-25T15:08:00.757Z,47.70
2019-05-25T15:10:31.069Z,47.50
2019-05-25T15:13:01.124Z,47.60
2019-05-25T15:15:31.322Z,47.60
2019-05-25T15:18:01.533Z,47.80
2019-05-25T15:20:32.216Z,48.40
2019-05-25T15:23:02.290Z,47.80
2019-05-25T15:25:32.412Z,47.90
2019-05-25T15:28:02.710Z,48.10
2019-05-25T15:30:32.811Z,48.10
2019-05-25T15:33:04.108Z,48.20
2019-05-25T15:35:34.606Z,48.30
2019-05-25T15:38:04.874Z,48.20
2019-05-25T15:40:38.456Z,48.40
2019-05-25T15:43:07.244Z,48.30
2019-05-25T15:45:37.549Z,48.30
2019-05-25T15:48:07.807Z,48.40
2019-05-25T15:50:38.697Z,48.60
2019-05-25T15:53:08.922Z,48.80
2019-05-25T15:55:39.130Z,48.80
2019-05-25T15:58:09.871Z,49.20
2019-05-25T16:00:48.139Z,49.00
2019-05-25T16:03:20.419Z,49.00
2019-05-25T16:05:50.814Z,50.00
2019-05-25T16:08:22.338Z,49.20
2019-05-25T16:10:53.159Z,49.10
2019-05-25T16:13:23.325Z,49.10
2019-05-25T16:15:53.521Z,49.20
2019-05-25T16:18:23.680Z,49.20
2019-05-25T16:20:54.090Z,49.40
2019-05-25T16:23:24.274Z,49.40
2019-05-25T16:25:54.851Z,49.50
2019-05-25T16:28:24.945Z,50.40
2019-05-25T16:30:55.061Z,50.30
2019-05-25T16:33:26.203Z,49.80
2019-05-25T16:35:58.011Z,49.90
2019-05-25T16:38:28.289Z,50.00
2019-05-25T16:40:58.834Z,50.20
2019-05-25T16:43:29.385Z,50.60
2019-05-25T16:45:59.675Z,50.50
2019-05-25T16:48:29.739Z,50.10
2019-05-25T16:51:00.252Z,49.50
2019-05-25T16:53:30.434Z,49.10
2019-05-25T16:56:00.643Z,49.00
2019-05-25T16:58:30.834Z,48.90
2019-05-25T17:01:01.506Z,48.90
2019-05-25T17:03:31.689Z,48.90
2019-05-25T17:06:01.840Z,49.00
2019-05-25T17:08:32.301Z,49.10
2019-05-25T17:11:02.404Z,49.30
2019-05-25T17:13:32.934Z,49.50
2019-05-25T17:16:03.588Z,49.70
2019-05-25T17:18:33.807Z,49.80
2019-05-25T17:21:04.286Z,49.80
2019-05-25T17:23:34.711Z,49.80
2019-05-25T17:26:05.309Z,49.50
2019-05-25T17:28:35.439Z,49.50
2019-05-25T17:31:05.588Z,49.40
2019-05-25T17:33:45.428Z,49.30
2019-05-25T17:36:07.536Z,49.40
2019-05-25T17:38:37.687Z,49.20
2019-05-25T17:41:08.124Z,49.20
2019-05-25T17:43:38.684Z,49.10
2019-05-25T17:46:09.240Z,49.10
2019-05-25T17:48:39.526Z,49.00
2019-05-25T17:51:09.768Z,49.10
2019-05-25T17:53:40.316Z,49.20
2019-05-25T17:56:10.831Z,49.10
2019-05-25T17:58:41.277Z,49.20
2019-05-25T18:01:11.501Z,49.40
2019-05-25T18:03:41.737Z,49.50
2019-05-25T18:06:11.943Z,49.60
2019-05-25T18:08:42.441Z,49.70
2019-05-25T18:11:12.653Z,49.70
2019-05-25T18:13:42.803Z,49.70
2019-05-25T18:16:13.318Z,49.60
2019-05-25T18:18:43.760Z,49.60
2019-05-25T18:21:14.129Z,49.60
2019-05-25T18:23:44.284Z,49.60
2019-05-25T18:26:14.690Z,49.70
2019-05-25T18:28:44.903Z,49.70
2019-05-25T18:31:15.147Z,49.70
2019-05-25T18:33:45.237Z,49.70
2019-05-25T18:36:15.433Z,50.40
2019-05-25T18:38:45.555Z,49.70
2019-05-25T18:41:16.009Z,49.80
2019-05-25T18:43:46.096Z,50.50
2019-05-25T18:46:16.380Z,49.80
2019-05-25T18:48:46.606Z,49.80
2019-05-25T18:51:16.875Z,49.90
2019-05-25T18:53:47.002Z,49.90
2019-05-25T18:56:17.561Z,49.90
2019-05-25T18:58:48.043Z,49.90
2019-05-25T19:01:18.418Z,50.00
2019-05-25T19:03:48.984Z,50.00
2019-05-25T19:06:19.539Z,50.00
2019-05-25T19:08:49.736Z,50.10
2019-05-25T19:11:19.963Z,50.10
2019-05-25T19:13:50.400Z,50.30
2019-05-25T19:16:20.919Z,50.30
2019-05-25T19:18:51.176Z,50.40
2019-05-25T19:21:21.785Z,50.40
2019-05-25T19:23:51.927Z,50.50
2019-05-25T19:26:22.101Z,50.60
2019-05-25T19:28:52.261Z,50.70
2019-05-25T19:31:22.810Z,50.70
2019-05-25T19:33:52.892Z,50.70
2019-05-25T19:36:23.550Z,50.90
2019-05-25T19:38:53.629Z,51.00
2019-05-25T19:41:23.838Z,51.10
2019-05-25T19:43:54.303Z,51.10
2019-05-25T19:46:24.567Z,51.20
2019-05-25T19:48:54.976Z,51.40
2019-05-25T19:51:26.286Z,51.50
2019-05-25T19:53:56.740Z,51.70
2019-05-25T19:56:27.016Z,51.70
2019-05-25T19:58:57.498Z,51.70
2019-05-25T20:01:27.763Z,51.80
2019-05-25T20:03:57.888Z,51.80
2019-05-25T20:06:27.993Z,52.00
2019-05-25T20:08:59.268Z,52.00
2019-05-25T20:11:29.501Z,52.00
2019-05-25T20:13:59.659Z,52.00
2019-05-25T20:16:29.775Z,52.10
2019-05-25T20:18:59.991Z,52.20
2019-05-25T20:21:30.325Z,52.20
2019-05-25T20:24:00.823Z,52.30
2019-05-25T20:26:31.057Z,52.30
2019-05-25T20:29:01.352Z,52.50
2019-05-25T20:31:31.833Z,52.40
2019-05-25T20:34:02.008Z,52.50
2019-05-25T20:36:32.604Z,52.70
2019-05-25T20:39:02.979Z,52.70
2019-05-25T20:41:33.510Z,52.80
2019-05-25T20:44:03.740Z,52.90
2019-05-25T20:46:34.038Z,53.00
2019-05-25T20:49:04.564Z,53.20
2019-05-25T20:51:34.994Z,53.10
2019-05-25T20:54:05.715Z,53.00
2019-05-25T20:56:36.277Z,53.30
2019-05-25T20:59:06.493Z,53.40
2019-05-25T21:01:36.731Z,53.40
2019-05-25T21:04:10.351Z,53.50
2019-05-25T21:06:40.477Z,53.60
2019-05-25T21:09:10.911Z,53.70
2019-05-25T21:11:41.085Z,53.70
2019-05-25T21:14:11.904Z,53.80
2019-05-25T21:16:42.072Z,53.80
2019-05-25T21:19:12.129Z,54.00
2019-05-25T21:21:42.274Z,54.20
2019-05-25T21:24:12.784Z,54.10
2019-05-25T21:26:43.322Z,54.10
2019-05-25T21:29:13.883Z,54.20
2019-05-25T21:31:44.985Z,54.20
2019-05-25T21:34:15.128Z,54.90
2019-05-25T21:36:45.684Z,54.70
2019-05-25T21:39:15.776Z,54.80
2019-05-25T21:41:46.282Z,54.80
2019-05-25T21:44:16.742Z,54.80
2019-05-25T21:46:46.938Z,55.00
2019-05-25T21:49:17.146Z,55.00
2019-05-25T21:51:47.573Z,55.10
2019-05-25T21:54:17.630Z,55.20
2019-05-25T21:56:47.849Z,55.30
2019-05-25T21:59:18.065Z,55.30
2019-05-25T22:01:48.198Z,55.40
2019-05-25T22:04:18.724Z,56.20
2019-05-25T22:06:48.834Z,56.20
2019-05-25T22:09:19.202Z,56.60
2019-05-25T22:11:49.686Z,55.90
2019-05-25T22:14:20.132Z,56.20
2019-05-25T22:16:50.658Z,56.00
2019-05-25T22:19:21.070Z,55.80
2019-05-25T22:21:51.341Z,55.90
2019-05-25T22:24:21.476Z,55.90
2019-05-25T22:26:51.855Z,55.70
2019-05-25T22:29:21.963Z,55.80
2019-05-25T22:31:52.436Z,55.80
2019-05-25T22:34:22.871Z,55.80
2019-05-25T22:36:52.995Z,55.90
2019-05-25T22:39:23.253Z,55.90
2019-05-25T22:41:53.627Z,55.90
2019-05-25T22:44:23.949Z,56.40
2019-05-25T22:46:54.258Z,56.20
2019-05-25T22:49:24.398Z,56.50
2019-05-25T22:51:54.677Z,56.60
2019-05-25T22:54:25.297Z,56.60
2019-05-25T22:56:55.825Z,56.70
2019-05-25T22:59:26.402Z,56.80
2019-05-25T23:01:56.915Z,56.70
2019-05-25T23:04:28.194Z,56.70
2019-05-25T23:06:58.718Z,56.50
2019-05-25T23:09:29.365Z,56.50
2019-05-25T23:12:00.643Z,56.50
2019-05-25T23:14:30.809Z,56.60
2019-05-25T23:17:01.115Z,56.60
2019-05-25T23:19:32.230Z,56.60
2019-05-25T23:22:02.442Z,56.70
2019-05-25T23:24:32.682Z,56.60
2019-05-25T23:27:02.807Z,56.70
2019-05-25T23:29:32.906Z,56.70
2019-05-25T23:32:03.367Z,56.80
2019-05-25T23:34:33.487Z,56.90
2019-05-25T23:37:14.350Z,56.90
2019-05-25T23:39:35.769Z,56.90
2019-05-25T23:42:06.213Z,57.00
2019-05-25T23:44:36.408Z,57.00
2019-05-25T23:47:06.737Z,57.00
2019-05-25T23:49:37.026Z,57.00
2019-05-25T23:52:07.226Z,57.00
2019-05-25T23:54:37.757Z,57.30
2019-05-25T23:57:07.936Z,57.20
2019-05-25T23:59:38.695Z,57.20
